createdAt,value
2023-01-31T00:01:25.440Z,9.80
2023-01-31T00:05:26.592Z,11.50
2023-01-31T00:09:27.745Z,11.70
2023-01-31T00:13:29.210Z,9.83
2023-01-31T00:17:30.363Z,13.30
2023-01-31T00:21:31.935Z,7.97
2023-01-31T00:25:33.062Z,7.60
2023-01-31T00:29:34.772Z,9.20
2023-01-31T00:33:39.163Z,12.00
2023-01-31T00:37:40.326Z,11.37
2023-01-31T00:41:41.596Z,7.30
2023-01-31T00:45:42.868Z,7.00
2023-01-31T00:49:44.053Z,11.20
2023-01-31T00:53:45.846Z,9.83
2023-01-31T00:57:46.896Z,13.33
2023-01-31T01:01:48.090Z,14.97
2023-01-31T01:05:49.217Z,18.87
2023-01-31T01:09:51.801Z,9.20
2023-01-31T01:13:53.558Z,10.30
2023-01-31T01:17:55.108Z,11.77
2023-01-31T01:21:56.263Z,12.67
2023-01-31T01:25:57.441Z,15.20
2023-01-31T01:29:58.615Z,9.77
2023-01-31T01:34:02.575Z,22.03
2023-01-31T01:38:03.701Z,9.87
2023-01-31T01:42:05.307Z,14.30
2023-01-31T01:46:09.684Z,13.60
2023-01-31T01:50:14.638Z,14.37
2023-01-31T01:54:19.574Z,11.40
2023-01-31T01:58:24.653Z,9.90
2023-01-31T02:02:27.318Z,12.10
2023-01-31T02:06:29.407Z,10.67
2023-01-31T02:10:43.201Z,10.97
2023-01-31T02:14:46.451Z,10.73
2023-01-31T02:18:48.300Z,13.73
2023-01-31T02:23:20.224Z,12.27
2023-01-31T02:27:37.035Z,10.53
2023-01-31T02:32:15.884Z,11.57
2023-01-31T02:36:38.918Z,14.10
2023-01-31T02:40:56.248Z,10.47
2023-01-31T02:45:01.114Z,14.23
2023-01-31T02:49:06.063Z,16.57
2023-01-31T02:53:14.075Z,16.70
2023-01-31T02:57:16.541Z,12.67
2023-01-31T03:01:22.388Z,13.50
2023-01-31T03:05:24.935Z,13.47
2023-01-31T03:09:40.033Z,13.03
2023-01-31T03:13:53.861Z,15.77
2023-01-31T03:18:01.986Z,7.70
2023-01-31T03:22:14.753Z,9.90
2023-01-31T03:26:19.274Z,12.30
2023-01-31T03:30:27.189Z,13.73
2023-01-31T03:34:28.639Z,13.30
2023-01-31T03:38:33.601Z,13.20
2023-01-31T03:43:06.215Z,8.17
2023-01-31T03:47:17.927Z,10.63
2023-01-31T03:51:22.604Z,11.37
2023-01-31T03:55:27.663Z,11.27
2023-01-31T03:59:32.625Z,10.80
2023-01-31T04:03:40.176Z,11.43
2023-01-31T04:07:42.404Z,12.00
2023-01-31T04:11:47.369Z,7.80
2023-01-31T04:15:48.548Z,13.60
2023-01-31T04:19:49.674Z,7.17
2023-01-31T04:23:50.821Z,13.27
2023-01-31T04:27:52.088Z,13.77
2023-01-31T04:31:53.306Z,14.87
2023-01-31T04:35:54.513Z,15.03
2023-01-31T04:39:55.633Z,9.27
2023-01-31T04:43:56.990Z,11.13
2023-01-31T04:47:58.240Z,12.93
2023-01-31T04:51:59.397Z,10.87
2023-01-31T04:56:00.550Z,7.93
2023-01-31T05:00:01.725Z,11.70
2023-01-31T05:04:02.988Z,12.80
2023-01-31T05:08:04.381Z,9.23
2023-01-31T05:12:07.403Z,9.50
2023-01-31T05:16:10.435Z,10.77
2023-01-31T05:20:11.601Z,10.83
2023-01-31T05:24:12.654Z,9.93
2023-01-31T05:28:13.815Z,10.07
2023-01-31T05:32:16.974Z,13.00
2023-01-31T05:36:18.122Z,14.00
2023-01-31T05:40:19.298Z,8.30
2023-01-31T05:44:20.843Z,11.50
2023-01-31T05:48:21.989Z,9.27
2023-01-31T05:52:23.138Z,7.73
2023-01-31T05:56:24.409Z,11.70
2023-01-31T06:00:25.939Z,10.77
2023-01-31T06:04:27.097Z,9.30
2023-01-31T06:08:28.259Z,9.40
2023-01-31T06:12:29.394Z,13.40
2023-01-31T06:16:30.885Z,8.40
2023-01-31T06:20:32.101Z,11.87
2023-01-31T06:24:33.361Z,10.70
2023-01-31T06:28:36.165Z,9.07
2023-01-31T06:32:37.362Z,7.83
2023-01-31T06:36:38.529Z,8.20
2023-01-31T06:40:39.734Z,16.10
2023-01-31T06:44:40.895Z,7.93
2023-01-31T06:48:43.092Z,17.53
2023-01-31T06:52:44.284Z,20.97
2023-01-31T06:56:45.362Z,12.53
2023-01-31T07:00:47.104Z,18.33
2023-01-31T07:04:48.328Z,20.53
2023-01-31T07:08:49.553Z,12.03
2023-01-31T07:12:50.722Z,13.90
2023-01-31T07:16:51.857Z,15.57
2023-01-31T07:20:52.923Z,13.20
2023-01-31T07:24:54.365Z,15.33
2023-01-31T07:28:55.509Z,12.20
2023-01-31T07:32:56.662Z,12.60
2023-01-31T07:37:00.521Z,16.60
2023-01-31T07:41:04.082Z,18.53
2023-01-31T07:45:22.126Z,18.53
2023-01-31T07:49:10.603Z,23.10
2023-01-31T07:53:11.761Z,17.60
2023-01-31T07:57:12.805Z,25.93
2023-01-31T08:01:36.807Z,25.00
2023-01-31T08:05:38.066Z,17.00
2023-01-31T08:09:39.326Z,20.30
2023-01-31T08:13:40.601Z,28.53
2023-01-31T08:17:41.794Z,20.07
2023-01-31T08:21:42.905Z,26.57
2023-01-31T08:25:44.497Z,25.17
2023-01-31T08:29:46.208Z,23.10
2023-01-31T08:33:49.813Z,28.10
2023-01-31T08:37:51.081Z,18.87
2023-01-31T08:41:52.360Z,32.43
2023-01-31T08:45:53.476Z,22.13
2023-01-31T08:49:54.652Z,24.73
2023-01-31T08:53:55.889Z,22.50
2023-01-31T08:58:00.076Z,18.87
2023-01-31T09:02:00.281Z,20.43
2023-01-31T09:06:04.371Z,18.93
2023-01-31T09:10:06.001Z,20.07
2023-01-31T09:14:07.080Z,22.60
2023-01-31T09:18:08.243Z,18.27
2023-01-31T09:22:09.416Z,17.90
2023-01-31T09:26:12.256Z,17.77
2023-01-31T09:30:15.164Z,18.47
2023-01-31T09:34:16.249Z,19.67
2023-01-31T09:38:17.310Z,21.63
2023-01-31T09:42:25.264Z,17.67
2023-01-31T09:46:31.965Z,17.17
2023-01-31T09:50:53.771Z,16.53
2023-01-31T09:54:55.029Z,11.80
2023-01-31T09:59:03.008Z,16.77
2023-01-31T10:03:23.402Z,15.73
2023-01-31T10:07:33.989Z,17.57
2023-01-31T10:11:44.997Z,18.43
2023-01-31T10:15:52.465Z,15.00
2023-01-31T10:20:00.479Z,14.13
2023-01-31T10:24:17.097Z,16.80
2023-01-31T10:28:51.744Z,18.50
2023-01-31T10:32:59.749Z,15.33
2023-01-31T10:37:30.904Z,16.30
2023-01-31T10:42:03.088Z,14.80
2023-01-31T10:46:14.672Z,19.80
2023-01-31T10:50:31.965Z,14.10
2023-01-31T10:54:54.768Z,17.30
2023-01-31T10:58:59.140Z,15.90
2023-01-31T11:03:00.266Z,16.63
2023-01-31T11:07:02.625Z,16.20
2023-01-31T11:11:07.516Z,14.47
2023-01-31T11:15:17.718Z,15.43
2023-01-31T11:19:28.760Z,13.47
2023-01-31T11:23:33.035Z,11.80
2023-01-31T11:27:41.062Z,16.20
2023-01-31T11:31:45.972Z,14.80
2023-01-31T11:35:50.882Z,14.80
2023-01-31T11:40:04.960Z,16.70
2023-01-31T11:44:15.448Z,22.07
2023-01-31T11:48:23.493Z,16.43
2023-01-31T11:52:31.392Z,13.10
2023-01-31T11:56:36.406Z,17.00
2023-01-31T12:00:41.520Z,20.73
2023-01-31T12:04:42.858Z,16.27
2023-01-31T12:08:44.322Z,13.90
2023-01-31T12:12:45.674Z,16.00
2023-01-31T12:16:49.385Z,19.30
2023-01-31T12:20:54.672Z,13.03
2023-01-31T12:25:28.343Z,14.03
2023-01-31T12:29:49.135Z,13.37
2023-01-31T12:34:09.013Z,14.70
2023-01-31T12:38:37.419Z,13.67
2023-01-31T12:42:54.333Z,18.40
2023-01-31T12:47:15.697Z,15.10
2023-01-31T12:51:21.073Z,17.73
2023-01-31T12:55:31.777Z,22.90
2023-01-31T12:59:46.018Z,19.20
2023-01-31T13:04:00.470Z,18.50
2023-01-31T13:08:20.217Z,17.30
2023-01-31T13:12:25.353Z,20.60
2023-01-31T13:16:36.551Z,19.20
2023-01-31T13:21:01.612Z,16.17
2023-01-31T13:25:24.879Z,19.40
2023-01-31T13:29:42.430Z,22.03
2023-01-31T13:33:56.526Z,20.93
2023-01-31T13:38:01.783Z,15.23
2023-01-31T13:42:03.364Z,16.53
2023-01-31T13:46:09.073Z,22.20
2023-01-31T13:50:24.152Z,19.90
2023-01-31T13:54:34.988Z,15.60
2023-01-31T13:58:37.417Z,21.33
2023-01-31T14:02:38.920Z,15.10
2023-01-31T14:07:01.443Z,13.80
2023-01-31T14:11:20.868Z,16.13
2023-01-31T14:15:42.950Z,16.27
2023-01-31T14:19:49.907Z,16.53
2023-01-31T14:23:51.087Z,14.90
2023-01-31T14:27:59.050Z,19.37
2023-01-31T14:32:00.352Z,18.10
2023-01-31T14:36:05.385Z,15.57
2023-01-31T14:40:28.207Z,19.27
2023-01-31T14:44:55.917Z,18.40
2023-01-31T14:49:23.917Z,18.60
2023-01-31T14:53:55.062Z,16.17
2023-01-31T14:57:59.318Z,20.23
2023-01-31T15:02:04.312Z,21.07
2023-01-31T15:06:18.389Z,20.10
2023-01-31T15:11:01.573Z,25.23
2023-01-31T15:15:04.753Z,19.93
2023-01-31T15:19:16.636Z,19.73
2023-01-31T15:23:21.567Z,18.60
2023-01-31T15:27:29.902Z,25.57
2023-01-31T15:31:34.737Z,21.23
2023-01-31T15:35:58.705Z,20.53
2023-01-31T15:40:03.570Z,23.10
2023-01-31T15:44:20.345Z,25.40
2023-01-31T15:48:22.317Z,27.63
2023-01-31T15:52:23.456Z,22.00
2023-01-31T15:56:26.418Z,27.40
2023-01-31T16:00:30.762Z,29.57
2023-01-31T16:04:31.940Z,25.00
2023-01-31T16:08:37.105Z,29.30
2023-01-31T16:12:41.386Z,19.07
2023-01-31T16:16:46.406Z,23.40
2023-01-31T16:20:51.006Z,20.30
2023-01-31T16:24:58.304Z,23.90
2023-01-31T16:29:03.062Z,25.63
2023-01-31T16:33:04.214Z,22.10
2023-01-31T16:37:08.797Z,21.33
2023-01-31T16:41:12.321Z,25.10
2023-01-31T16:45:29.690Z,22.93
2023-01-31T16:49:36.429Z,22.60
2023-01-31T16:53:39.483Z,24.67
2023-01-31T16:57:41.031Z,16.83
2023-01-31T17:01:42.525Z,25.17
2023-01-31T17:05:47.249Z,17.50
2023-01-31T17:09:50.517Z,16.30
2023-01-31T17:13:51.761Z,22.80
2023-01-31T17:17:53.043Z,19.70
2023-01-31T17:21:54.492Z,27.00
2023-01-31T17:25:56.305Z,17.40
2023-01-31T17:29:59.265Z,16.57
2023-01-31T17:34:05.288Z,14.90
2023-01-31T17:38:10.656Z,15.27
2023-01-31T17:42:20.311Z,18.33
2023-01-31T17:46:21.480Z,21.30
2023-01-31T17:50:25.359Z,14.10
2023-01-31T17:54:26.610Z,12.60
2023-01-31T17:58:28.032Z,13.43
2023-01-31T18:02:29.205Z,12.97
2023-01-31T18:06:30.457Z,13.23
2023-01-31T18:10:31.609Z,13.20
2023-01-31T18:14:32.916Z,14.30
2023-01-31T18:18:39.801Z,15.53
2023-01-31T18:22:40.933Z,14.27
2023-01-31T18:26:43.861Z,13.20
2023-01-31T18:30:45.084Z,16.70
2023-01-31T18:34:47.413Z,14.57
2023-01-31T18:38:49.466Z,14.10
2023-01-31T18:42:50.629Z,16.13
2023-01-31T18:46:51.817Z,18.13
2023-01-31T18:50:52.959Z,12.70
2023-01-31T18:54:54.141Z,10.17
2023-01-31T18:58:55.314Z,11.40
2023-01-31T19:02:57.850Z,11.87
2023-01-31T19:06:59.004Z,13.87
2023-01-31T19:11:12.123Z,11.50
2023-01-31T19:15:13.301Z,9.77
2023-01-31T19:19:14.750Z,9.07
2023-01-31T19:23:15.891Z,6.77
2023-01-31T19:27:17.088Z,8.43
2023-01-31T19:31:20.935Z,7.73
2023-01-31T19:35:22.446Z,6.73
2023-01-31T19:39:23.928Z,9.00
2023-01-31T19:43:25.085Z,5.97
2023-01-31T19:47:26.152Z,7.77
2023-01-31T19:51:28.135Z,7.70
2023-01-31T19:55:31.893Z,6.93
2023-01-31T19:59:33.038Z,6.83
2023-01-31T20:03:35.013Z,8.23
2023-01-31T20:07:37.626Z,6.83
2023-01-31T20:11:38.902Z,6.40
2023-01-31T20:15:40.078Z,8.00
2023-01-31T20:19:41.247Z,9.27
2023-01-31T20:23:43.247Z,7.20
2023-01-31T20:27:44.439Z,7.37
2023-01-31T20:31:45.629Z,5.10
2023-01-31T20:35:46.912Z,6.10
2023-01-31T20:39:48.066Z,6.23
2023-01-31T20:43:50.009Z,5.07
2023-01-31T20:47:51.204Z,6.30
2023-01-31T20:51:52.439Z,5.20
2023-01-31T20:55:56.204Z,5.13
2023-01-31T20:59:57.407Z,5.80
2023-01-31T21:03:58.694Z,6.57
2023-01-31T21:07:59.852Z,6.80
2023-01-31T21:12:01.128Z,7.17
2023-01-31T21:16:05.249Z,6.90
2023-01-31T21:20:07.954Z,6.50
2023-01-31T21:24:09.095Z,6.77
2023-01-31T21:28:10.286Z,7.47
2023-01-31T21:32:11.599Z,7.50
2023-01-31T21:36:15.269Z,7.40
2023-01-31T21:40:16.750Z,8.13
2023-01-31T21:44:18.055Z,6.80
2023-01-31T21:48:28.307Z,7.10
2023-01-31T21:52:29.565Z,8.37
2023-01-31T21:56:30.814Z,7.47
2023-01-31T22:00:32.017Z,8.97
2023-01-31T22:04:33.179Z,10.50
2023-01-31T22:08:35.190Z,8.50
2023-01-31T22:12:36.368Z,8.00
2023-01-31T22:16:38.447Z,6.90
2023-01-31T22:20:39.657Z,7.30
2023-01-31T22:24:40.999Z,7.17
2023-01-31T22:28:42.538Z,7.50
2023-01-31T22:32:43.803Z,9.90
2023-01-31T22:36:45.060Z,7.70
2023-01-31T22:40:46.644Z,5.80
2023-01-31T22:44:47.827Z,7.60
2023-01-31T22:48:49.906Z,7.27
2023-01-31T22:52:51.132Z,7.37
2023-01-31T22:56:52.307Z,8.47
2023-01-31T23:00:53.564Z,7.73
2023-01-31T23:04:54.639Z,6.63
2023-01-31T23:08:56.083Z,5.83
2023-01-31T23:12:58.741Z,7.53
2023-01-31T23:17:18.344Z,7.97
2023-01-31T23:21:19.502Z,7.40
2023-01-31T23:25:22.556Z,6.70
2023-01-31T23:29:23.627Z,6.83
2023-01-31T23:33:24.763Z,6.47
2023-01-31T23:37:26.032Z,8.23
2023-01-31T23:41:27.163Z,8.13
2023-01-31T23:45:28.357Z,7.70
2023-01-31T23:49:29.492Z,9.13
2023-01-31T23:53:30.648Z,9.00
2023-01-31T23:57:31.866Z,9.60
